Fort Bayard, New Mexico
Current Conditions -  °F | °C
As of 6:15 AM on Thursday 18 Dec 2014 (Local Time) from KSVC Reporting Station
Clear Clear  
Wind Chill: 32°   Ceiling: Unl
Heat Index: 32°   Visibility: 10mi
Dew Point: 30°   Wind: 3mph
Humidity: 93%   Direction: 340°NNW
Pressure: 30.15"   Gusts: NA
Location:  32.8°N, 108.15°W
Report Text: KSVC 181315Z AUTO 34003KT 10SM CLR 00/M01 A3015 RMK AO2
Loading
Personal Weather Stations






























Interactive Weather Map New forecast layout! Learn more

10-Day Weather Forecast

Advertisements
Track Severe Weather on mobile